sensor_id;sensor_type;location;lat;lon;timestamp;P1;durP1;ratioP1;P2;durP2;ratioP2
1154;SDS011;566;48.414;9.118;2023-01-10T00:01:08;7.63;;;3.03;;
1154;SDS011;566;48.414;9.118;2023-01-10T00:03:34;9.48;;;3.88;;
1154;SDS011;566;48.414;9.118;2023-01-10T00:06:00;8.68;;;2.78;;
1154;SDS011;566;48.414;9.118;2023-01-10T00:08:25;6.03;;;2.15;;
1154;SDS011;566;48.414;9.118;2023-01-10T00:10:51;5.85;;;2.20;;
1154;SDS011;566;48.414;9.118;2023-01-10T00:13:16;20.98;;;7.45;;
1154;SDS011;566;48.414;9.118;2023-01-10T00:15:49;10.95;;;3.10;;
1154;SDS011;566;48.414;9.118;2023-01-10T00:18:16;7.22;;;2.85;;
1154;SDS011;566;48.414;9.118;2023-01-10T00:20:42;5.43;;;2.13;;
1154;SDS011;566;48.414;9.118;2023-01-10T00:23:11;11.30;;;3.05;;
1154;SDS011;566;48.414;9.118;2023-01-10T00:25:36;4.47;;;2.30;;
1154;SDS011;566;48.414;9.118;2023-01-10T00:28:02;10.25;;;2.88;;
1154;SDS011;566;48.414;9.118;2023-01-10T00:30:36;11.25;;;2.70;;
1154;SDS011;566;48.414;9.118;2023-01-10T00:33:03;5.57;;;2.30;;
1154;SDS011;566;48.414;9.118;2023-01-10T00:35:29;33.05;;;7.35;;
1154;SDS011;566;48.414;9.118;2023-01-10T00:37:54;14.32;;;3.40;;
1154;SDS011;566;48.414;9.118;2023-01-10T00:40:25;10.63;;;2.55;;
1154;SDS011;566;48.414;9.118;2023-01-10T00:42:51;8.40;;;2.95;;
1154;SDS011;566;48.414;9.118;2023-01-10T00:45:35;4.47;;;1.90;;
1154;SDS011;566;48.414;9.118;2023-01-10T00:48:01;3.63;;;1.70;;
1154;SDS011;566;48.414;9.118;2023-01-10T00:50:26;9.93;;;3.67;;
1154;SDS011;566;48.414;9.118;2023-01-10T00:52:52;5.40;;;2.40;;
1154;SDS011;566;48.414;9.118;2023-01-10T00:55:17;4.57;;;2.40;;
1154;SDS011;566;48.414;9.118;2023-01-10T00:57:43;5.63;;;2.03;;
1154;SDS011;566;48.414;9.118;2023-01-10T01:00:09;4.82;;;2.40;;
1154;SDS011;566;48.414;9.118;2023-01-10T01:02:36;6.35;;;2.00;;
1154;SDS011;566;48.414;9.118;2023-01-10T01:05:01;4.60;;;2.05;;
1154;SDS011;566;48.414;9.118;2023-01-10T01:07:28;5.32;;;2.60;;
1154;SDS011;566;48.414;9.118;2023-01-10T01:09:54;4.32;;;2.40;;
1154;SDS011;566;48.414;9.118;2023-01-10T01:12:37;5.88;;;2.30;;
1154;SDS011;566;48.414;9.118;2023-01-10T01:15:03;4.63;;;2.30;;
1154;SDS011;566;48.414;9.118;2023-01-10T01:17:29;6.68;;;2.20;;
1154;SDS011;566;48.414;9.118;2023-01-10T01:19:55;4.63;;;2.53;;
1154;SDS011;566;48.414;9.118;2023-01-10T01:22:20;4.60;;;2.10;;
1154;SDS011;566;48.414;9.118;2023-01-10T01:24:46;3.80;;;2.00;;
1154;SDS011;566;48.414;9.118;2023-01-10T01:27:14;4.10;;;2.10;;
1154;SDS011;566;48.414;9.118;2023-01-10T01:29:40;4.10;;;2.17;;
1154;SDS011;566;48.414;9.118;2023-01-10T01:32:06;3.38;;;1.88;;
1154;SDS011;566;48.414;9.118;2023-01-10T01:34:31;4.25;;;1.90;;
1154;SDS011;566;48.414;9.118;2023-01-10T01:36:57;6.90;;;2.40;;
1154;SDS011;566;48.414;9.118;2023-01-10T01:39:25;3.45;;;1.90;;
1154;SDS011;566;48.414;9.118;2023-01-10T01:41:50;4.07;;;2.10;;
1154;SDS011;566;48.414;9.118;2023-01-10T01:44:22;3.40;;;2.03;;
1154;SDS011;566;48.414;9.118;2023-01-10T01:47:16;3.20;;;1.90;;
1154;SDS011;566;48.414;9.118;2023-01-10T01:49:49;4.75;;;1.90;;
1154;SDS011;566;48.414;9.118;2023-01-10T01:52:26;2.80;;;1.60;;
1154;SDS011;566;48.414;9.118;2023-01-10T01:54:58;5.25;;;2.40;;
1154;SDS011;566;48.414;9.118;2023-01-10T01:57:25;3.85;;;2.17;;
1154;SDS011;566;48.414;9.118;2023-01-10T01:59:53;4.80;;;1.80;;
1154;SDS011;566;48.414;9.118;2023-01-10T02:02:40;4.00;;;1.80;;
1154;SDS011;566;48.414;9.118;2023-01-10T02:05:11;6.00;;;1.80;;
1154;SDS011;566;48.414;9.118;2023-01-10T02:07:40;4.30;;;1.88;;
1154;SDS011;566;48.414;9.118;2023-01-10T02:10:10;3.85;;;1.65;;
1154;SDS011;566;48.414;9.118;2023-01-10T02:13:01;3.80;;;1.58;;
1154;SDS011;566;48.414;9.118;2023-01-10T02:15:29;3.55;;;1.80;;
1154;SDS011;566;48.414;9.118;2023-01-10T02:17:55;3.10;;;1.83;;
1154;SDS011;566;48.414;9.118;2023-01-10T02:20:22;4.78;;;1.80;;
1154;SDS011;566;48.414;9.118;2023-01-10T02:39:38;5.68;;;2.13;;
1154;SDS011;566;48.414;9.118;2023-01-10T02:42:18;6.75;;;2.92;;
1154;SDS011;566;48.414;9.118;2023-01-10T02:45:02;4.53;;;2.00;;
1154;SDS011;566;48.414;9.118;2023-01-10T02:47:36;3.25;;;1.77;;
1154;SDS011;566;48.414;9.118;2023-01-10T02:52:51;6.00;;;1.70;;
1154;SDS011;566;48.414;9.118;2023-01-10T02:55:18;2.92;;;1.50;;
1154;SDS011;566;48.414;9.118;2023-01-10T02:57:50;3.15;;;1.40;;
1154;SDS011;566;48.414;9.118;2023-01-10T03:00:56;4.45;;;1.60;;
1154;SDS011;566;48.414;9.118;2023-01-10T03:03:34;3.60;;;1.50;;
1154;SDS011;566;48.414;9.118;2023-01-10T03:06:33;4.95;;;1.83;;
1154;SDS011;566;48.414;9.118;2023-01-10T03:11:32;3.72;;;1.50;;
1154;SDS011;566;48.414;9.118;2023-01-10T03:14:18;4.15;;;1.50;;
1154;SDS011;566;48.414;9.118;2023-01-10T03:17:01;4.72;;;1.65;;
1154;SDS011;566;48.414;9.118;2023-01-10T03:19:32;3.67;;;1.42;;
1154;SDS011;566;48.414;9.118;2023-01-10T03:22:03;3.10;;;1.50;;
1154;SDS011;566;48.414;9.118;2023-01-10T03:24:37;3.28;;;1.40;;
1154;SDS011;566;48.414;9.118;2023-01-10T03:27:07;3.92;;;1.70;;
1154;SDS011;566;48.414;9.118;2023-01-10T03:29:50;2.22;;;1.30;;
1154;SDS011;566;48.414;9.118;2023-01-10T03:32:24;2.67;;;1.55;;
1154;SDS011;566;48.414;9.118;2023-01-10T03:34:53;4.00;;;1.70;;
1154;SDS011;566;48.414;9.118;2023-01-10T03:37:23;4.72;;;1.52;;
1154;SDS011;566;48.414;9.118;2023-01-10T03:45:35;4.93;;;2.00;;
1154;SDS011;566;48.414;9.118;2023-01-10T03:48:07;5.90;;;2.95;;
1154;SDS011;566;48.414;9.118;2023-01-10T03:50:35;3.80;;;1.80;;
1154;SDS011;566;48.414;9.118;2023-01-10T03:53:02;3.35;;;1.90;;
1154;SDS011;566;48.414;9.118;2023-01-10T03:55:29;3.60;;;1.77;;
1154;SDS011;566;48.414;9.118;2023-01-10T03:57:55;2.90;;;1.52;;
1154;SDS011;566;48.414;9.118;2023-01-10T04:00:24;3.33;;;1.80;;
1154;SDS011;566;48.414;9.118;2023-01-10T04:02:50;4.80;;;1.67;;
1154;SDS011;566;48.414;9.118;2023-01-10T04:05:15;4.55;;;1.65;;
1154;SDS011;566;48.414;9.118;2023-01-10T04:07:41;4.43;;;1.92;;
1154;SDS011;566;48.414;9.118;2023-01-10T04:10:07;4.53;;;2.00;;
1154;SDS011;566;48.414;9.118;2023-01-10T04:12:33;4.63;;;1.77;;
1154;SDS011;566;48.414;9.118;2023-01-10T04:14:58;4.13;;;1.50;;
1154;SDS011;566;48.414;9.118;2023-01-10T04:17:25;4.53;;;1.50;;
1154;SDS011;566;48.414;9.118;2023-01-10T04:19:51;5.72;;;1.80;;
1154;SDS011;566;48.414;9.118;2023-01-10T04:22:16;3.92;;;1.60;;
1154;SDS011;566;48.414;9.118;2023-01-10T04:24:42;4.30;;;1.58;;
1154;SDS011;566;48.414;9.118;2023-01-10T04:27:08;4.57;;;1.80;;
1154;SDS011;566;48.414;9.118;2023-01-10T04:29:34;4.93;;;1.58;;
1154;SDS011;566;48.414;9.118;2023-01-10T04:31:59;5.80;;;1.70;;
1154;SDS011;566;48.414;9.118;2023-01-10T04:34:25;5.82;;;2.00;;
1154;SDS011;566;48.414;9.118;2023-01-10T04:36:50;8.25;;;2.28;;
1154;SDS011;566;48.414;9.118;2023-01-10T04:39:16;9.75;;;1.80;;
1154;SDS011;566;48.414;9.118;2023-01-10T04:41:42;5.85;;;2.65;;
1154;SDS011;566;48.414;9.118;2023-01-10T04:44:07;9.25;;;3.95;;
1154;SDS011;566;48.414;9.118;2023-01-10T04:46:33;9.43;;;3.00;;
1154;SDS011;566;48.414;9.118;2023-01-10T04:49:01;9.15;;;2.80;;
1154;SDS011;566;48.414;9.118;2023-01-10T04:51:30;13.82;;;2.70;;
1154;SDS011;566;48.414;9.118;2023-01-10T04:53:55;5.35;;;2.67;;
1154;SDS011;566;48.414;9.118;2023-01-10T04:56:21;6.90;;;2.80;;
1154;SDS011;566;48.414;9.118;2023-01-10T04:58:48;9.48;;;3.85;;
1154;SDS011;566;48.414;9.118;2023-01-10T05:01:18;11.52;;;4.05;;
1154;SDS011;566;48.414;9.118;2023-01-10T05:03:46;10.07;;;3.60;;
1154;SDS011;566;48.414;9.118;2023-01-10T05:06:13;10.48;;;3.63;;
1154;SDS011;566;48.414;9.118;2023-01-10T05:08:38;10.00;;;3.80;;
1154;SDS011;566;48.414;9.118;2023-01-10T05:11:04;12.30;;;3.72;;
1154;SDS011;566;48.414;9.118;2023-01-10T05:13:30;14.52;;;3.85;;
1154;SDS011;566;48.414;9.118;2023-01-10T05:15:56;10.52;;;4.35;;
1154;SDS011;566;48.414;9.118;2023-01-10T05:18:25;15.98;;;4.00;;
1154;SDS011;566;48.414;9.118;2023-01-10T05:20:58;13.60;;;4.25;;
1154;SDS011;566;48.414;9.118;2023-01-10T05:23:27;14.40;;;4.28;;
1154;SDS011;566;48.414;9.118;2023-01-10T05:25:53;9.95;;;4.18;;
1154;SDS011;566;48.414;9.118;2023-01-10T05:28:22;13.68;;;4.60;;
1154;SDS011;566;48.414;9.118;2023-01-10T05:30:48;14.90;;;5.10;;
1154;SDS011;566;48.414;9.118;2023-01-10T05:33:13;21.25;;;4.75;;
1154;SDS011;566;48.414;9.118;2023-01-10T05:35:39;14.18;;;4.38;;
1154;SDS011;566;48.414;9.118;2023-01-10T05:38:05;17.20;;;5.03;;
1154;SDS011;566;48.414;9.118;2023-01-10T05:40:31;14.07;;;4.20;;
1154;SDS011;566;48.414;9.118;2023-01-10T05:42:59;18.25;;;4.43;;
1154;SDS011;566;48.414;9.118;2023-01-10T05:45:24;22.48;;;5.75;;
1154;SDS011;566;48.414;9.118;2023-01-10T05:47:50;17.70;;;4.72;;
1154;SDS011;566;48.414;9.118;2023-01-10T05:50:15;15.75;;;4.07;;
1154;SDS011;566;48.414;9.118;2023-01-10T05:52:41;14.27;;;5.03;;
1154;SDS011;566;48.414;9.118;2023-01-10T05:55:06;14.68;;;5.78;;
1154;SDS011;566;48.414;9.118;2023-01-10T05:57:32;21.52;;;6.70;;
1154;SDS011;566;48.414;9.118;2023-01-10T05:59:58;17.48;;;4.82;;
1154;SDS011;566;48.414;9.118;2023-01-10T06:02:23;17.20;;;5.40;;
1154;SDS011;566;48.414;9.118;2023-01-10T06:04:50;17.35;;;4.82;;
1154;SDS011;566;48.414;9.118;2023-01-10T06:07:16;17.60;;;5.53;;
1154;SDS011;566;48.414;9.118;2023-01-10T06:09:41;18.17;;;5.38;;
1154;SDS011;566;48.414;9.118;2023-01-10T06:12:07;31.27;;;12.07;;
1154;SDS011;566;48.414;9.118;2023-01-10T06:14:33;16.02;;;5.95;;
1154;SDS011;566;48.414;9.118;2023-01-10T06:16:58;18.58;;;4.88;;
1154;SDS011;566;48.414;9.118;2023-01-10T06:19:24;11.75;;;4.65;;
1154;SDS011;566;48.414;9.118;2023-01-10T06:21:49;18.48;;;4.93;;
1154;SDS011;566;48.414;9.118;2023-01-10T06:24:15;19.05;;;5.97;;
1154;SDS011;566;48.414;9.118;2023-01-10T06:26:40;20.23;;;6.30;;
1154;SDS011;566;48.414;9.118;2023-01-10T06:29:06;23.63;;;7.18;;
1154;SDS011;566;48.414;9.118;2023-01-10T06:31:32;19.15;;;7.65;;
1154;SDS011;566;48.414;9.118;2023-01-10T06:33:57;25.15;;;11.60;;
1154;SDS011;566;48.414;9.118;2023-01-10T06:36:23;14.48;;;6.88;;
1154;SDS011;566;48.414;9.118;2023-01-10T06:38:48;22.42;;;6.68;;
1154;SDS011;566;48.414;9.118;2023-01-10T06:41:14;21.55;;;8.88;;
1154;SDS011;566;48.414;9.118;2023-01-10T06:43:43;27.63;;;11.48;;
1154;SDS011;566;48.414;9.118;2023-01-10T06:46:14;25.73;;;8.27;;
1154;SDS011;566;48.414;9.118;2023-01-10T06:48:41;28.13;;;10.20;;
1154;SDS011;566;48.414;9.118;2023-01-10T06:51:10;21.50;;;6.30;;
1154;SDS011;566;48.414;9.118;2023-01-10T06:53:36;20.65;;;8.63;;
1154;SDS011;566;48.414;9.118;2023-01-10T06:56:02;24.17;;;9.23;;
1154;SDS011;566;48.414;9.118;2023-01-10T06:58:32;20.88;;;7.53;;
1154;SDS011;566;48.414;9.118;2023-01-10T07:00:58;23.35;;;6.97;;
1154;SDS011;566;48.414;9.118;2023-01-10T07:03:24;20.90;;;7.75;;
1154;SDS011;566;48.414;9.118;2023-01-10T07:05:49;17.75;;;5.13;;
1154;SDS011;566;48.414;9.118;2023-01-10T07:08:15;14.88;;;5.40;;
1154;SDS011;566;48.414;9.118;2023-01-10T07:10:41;20.75;;;4.68;;
1154;SDS011;566;48.414;9.118;2023-01-10T07:13:08;16.90;;;3.92;;
1154;SDS011;566;48.414;9.118;2023-01-10T07:15:34;17.20;;;4.72;;
1154;SDS011;566;48.414;9.118;2023-01-10T07:18:00;11.43;;;4.32;;
1154;SDS011;566;48.414;9.118;2023-01-10T07:20:26;22.15;;;7.25;;
1154;SDS011;566;48.414;9.118;2023-01-10T07:22:55;25.65;;;8.35;;
1154;SDS011;566;48.414;9.118;2023-01-10T07:25:25;21.23;;;8.45;;
1154;SDS011;566;48.414;9.118;2023-01-10T07:27:51;19.70;;;5.80;;
1154;SDS011;566;48.414;9.118;2023-01-10T07:30:21;20.38;;;4.78;;
1154;SDS011;566;48.414;9.118;2023-01-10T07:32:54;16.33;;;4.57;;
1154;SDS011;566;48.414;9.118;2023-01-10T07:35:20;13.43;;;4.85;;
1154;SDS011;566;48.414;9.118;2023-01-10T07:37:46;15.80;;;4.00;;
1154;SDS011;566;48.414;9.118;2023-01-10T07:40:12;15.73;;;4.30;;
1154;SDS011;566;48.414;9.118;2023-01-10T07:42:38;19.58;;;4.30;;
1154;SDS011;566;48.414;9.118;2023-01-10T07:45:04;12.73;;;4.30;;
1154;SDS011;566;48.414;9.118;2023-01-10T07:47:31;14.43;;;4.40;;
1154;SDS011;566;48.414;9.118;2023-01-10T07:49:56;16.75;;;5.03;;
1154;SDS011;566;48.414;9.118;2023-01-10T07:52:22;13.80;;;3.60;;
1154;SDS011;566;48.414;9.118;2023-01-10T07:54:47;24.08;;;6.25;;
1154;SDS011;566;48.414;9.118;2023-01-10T07:57:13;19.05;;;5.75;;
1154;SDS011;566;48.414;9.118;2023-01-10T07:59:39;13.05;;;4.05;;
1154;SDS011;566;48.414;9.118;2023-01-10T08:02:05;14.20;;;4.00;;
1154;SDS011;566;48.414;9.118;2023-01-10T08:04:30;13.20;;;4.15;;
1154;SDS011;566;48.414;9.118;2023-01-10T08:06:56;15.10;;;4.30;;
1154;SDS011;566;48.414;9.118;2023-01-10T08:09:21;14.65;;;4.55;;
1154;SDS011;566;48.414;9.118;2023-01-10T08:11:47;16.42;;;5.65;;
1154;SDS011;566;48.414;9.118;2023-01-10T08:14:12;21.23;;;7.43;;
1154;SDS011;566;48.414;9.118;2023-01-10T08:16:38;17.02;;;4.60;;
1154;SDS011;566;48.414;9.118;2023-01-10T08:19:03;14.88;;;4.88;;
1154;SDS011;566;48.414;9.118;2023-01-10T08:21:29;13.82;;;4.43;;
1154;SDS011;566;48.414;9.118;2023-01-10T08:23:55;13.57;;;4.53;;
1154;SDS011;566;48.414;9.118;2023-01-10T08:26:20;12.65;;;4.10;;
1154;SDS011;566;48.414;9.118;2023-01-10T08:28:46;12.75;;;4.72;;
1154;SDS011;566;48.414;9.118;2023-01-10T08:31:11;11.73;;;4.30;;
1154;SDS011;566;48.414;9.118;2023-01-10T08:33:37;10.50;;;3.00;;
1154;SDS011;566;48.414;9.118;2023-01-10T08:36:04;14.75;;;3.53;;
1154;SDS011;566;48.414;9.118;2023-01-10T08:38:30;16.95;;;3.42;;
1154;SDS011;566;48.414;9.118;2023-01-10T08:40:56;15.95;;;4.00;;
1154;SDS011;566;48.414;9.118;2023-01-10T08:43:22;10.63;;;3.10;;
1154;SDS011;566;48.414;9.118;2023-01-10T08:45:48;10.73;;;3.33;;
1154;SDS011;566;48.414;9.118;2023-01-10T08:48:14;14.80;;;4.00;;
1154;SDS011;566;48.414;9.118;2023-01-10T08:50:39;10.80;;;3.00;;
1154;SDS011;566;48.414;9.118;2023-01-10T08:53:07;11.77;;;3.03;;
1154;SDS011;566;48.414;9.118;2023-01-10T08:55:33;11.70;;;3.17;;
1154;SDS011;566;48.414;9.118;2023-01-10T08:57:59;12.73;;;4.35;;
1154;SDS011;566;48.414;9.118;2023-01-10T09:00:26;12.10;;;3.58;;
1154;SDS011;566;48.414;9.118;2023-01-10T09:02:52;11.80;;;2.95;;
1154;SDS011;566;48.414;9.118;2023-01-10T09:05:18;7.35;;;2.63;;
1154;SDS011;566;48.414;9.118;2023-01-10T09:07:43;9.38;;;3.20;;
1154;SDS011;566;48.414;9.118;2023-01-10T09:10:10;9.18;;;2.90;;
1154;SDS011;566;48.414;9.118;2023-01-10T09:12:36;10.10;;;3.13;;
1154;SDS011;566;48.414;9.118;2023-01-10T09:15:23;15.07;;;3.00;;
1154;SDS011;566;48.414;9.118;2023-01-10T09:17:54;11.95;;;4.03;;
1154;SDS011;566;48.414;9.118;2023-01-10T09:20:22;11.85;;;3.53;;
1154;SDS011;566;48.414;9.118;2023-01-10T09:22:49;10.80;;;2.42;;
1154;SDS011;566;48.414;9.118;2023-01-10T09:25:14;12.48;;;3.78;;
1154;SDS011;566;48.414;9.118;2023-01-10T09:27:40;9.32;;;2.88;;
1154;SDS011;566;48.414;9.118;2023-01-10T09:30:06;10.00;;;2.95;;
1154;SDS011;566;48.414;9.118;2023-01-10T09:32:32;10.77;;;3.05;;
1154;SDS011;566;48.414;9.118;2023-01-10T09:34:58;12.32;;;3.90;;
1154;SDS011;566;48.414;9.118;2023-01-10T09:37:23;9.55;;;2.63;;
1154;SDS011;566;48.414;9.118;2023-01-10T09:39:49;9.80;;;2.40;;
1154;SDS011;566;48.414;9.118;2023-01-10T09:45:36;13.68;;;3.60;;
1154;SDS011;566;48.414;9.118;2023-01-10T09:48:12;13.98;;;3.13;;
1154;SDS011;566;48.414;9.118;2023-01-10T09:53:42;11.35;;;2.50;;
1154;SDS011;566;48.414;9.118;2023-01-10T09:56:10;9.70;;;2.47;;
1154;SDS011;566;48.414;9.118;2023-01-10T09:58:39;12.57;;;2.55;;
1154;SDS011;566;48.414;9.118;2023-01-10T10:01:17;9.32;;;2.22;;
1154;SDS011;566;48.414;9.118;2023-01-10T10:03:54;12.82;;;2.40;;
1154;SDS011;566;48.414;9.118;2023-01-10T10:06:38;6.63;;;2.42;;
1154;SDS011;566;48.414;9.118;2023-01-10T10:09:04;8.00;;;2.10;;
1154;SDS011;566;48.414;9.118;2023-01-10T10:11:33;8.00;;;2.60;;
1154;SDS011;566;48.414;9.118;2023-01-10T10:14:44;14.27;;;2.47;;
1154;SDS011;566;48.414;9.118;2023-01-10T10:20:00;10.38;;;3.88;;
1154;SDS011;566;48.414;9.118;2023-01-10T10:37:47;12.43;;;4.30;;
1154;SDS011;566;48.414;9.118;2023-01-10T10:39:49;9.45;;;2.13;;
1154;SDS011;566;48.414;9.118;2023-01-10T10:42:20;8.00;;;2.20;;
1154;SDS011;566;48.414;9.118;2023-01-10T10:44:51;8.23;;;2.00;;
1154;SDS011;566;48.414;9.118;2023-01-10T10:47:20;8.60;;;2.45;;
1154;SDS011;566;48.414;9.118;2023-01-10T10:49:58;7.13;;;2.38;;
1154;SDS011;566;48.414;9.118;2023-01-10T10:52:53;11.80;;;2.33;;
1154;SDS011;566;48.414;9.118;2023-01-10T10:55:21;8.63;;;2.30;;
1154;SDS011;566;48.414;9.118;2023-01-10T10:57:53;11.15;;;2.42;;
1154;SDS011;566;48.414;9.118;2023-01-10T11:00:19;8.70;;;3.40;;
1154;SDS011;566;48.414;9.118;2023-01-10T11:02:54;8.93;;;2.97;;
1154;SDS011;566;48.414;9.118;2023-01-10T11:05:40;9.43;;;3.33;;
1154;SDS011;566;48.414;9.118;2023-01-10T11:08:10;11.63;;;2.45;;
1154;SDS011;566;48.414;9.118;2023-01-10T11:10:37;12.35;;;2.80;;
1154;SDS011;566;48.414;9.118;2023-01-10T11:13:19;9.45;;;2.10;;
1154;SDS011;566;48.414;9.118;2023-01-10T11:15:56;10.85;;;2.25;;
1154;SDS011;566;48.414;9.118;2023-01-10T11:18:22;8.98;;;2.40;;
1154;SDS011;566;48.414;9.118;2023-01-10T11:20:57;9.93;;;2.85;;
1154;SDS011;566;48.414;9.118;2023-01-10T11:23:30;9.20;;;2.60;;
1154;SDS011;566;48.414;9.118;2023-01-10T11:26:21;8.13;;;2.35;;
1154;SDS011;566;48.414;9.118;2023-01-10T11:29:15;11.43;;;2.53;;
1154;SDS011;566;48.414;9.118;2023-01-10T11:31:41;19.52;;;10.27;;
1154;SDS011;566;48.414;9.118;2023-01-10T11:34:19;8.43;;;2.00;;
1154;SDS011;566;48.414;9.118;2023-01-10T11:39:22;8.15;;;2.72;;
1154;SDS011;566;48.414;9.118;2023-01-10T11:41:48;7.35;;;1.67;;
1154;SDS011;566;48.414;9.118;2023-01-10T11:44:24;7.80;;;1.88;;
1154;SDS011;566;48.414;9.118;2023-01-10T11:49:25;12.20;;;2.05;;
1154;SDS011;566;48.414;9.118;2023-01-10T11:52:00;6.80;;;2.10;;
1154;SDS011;566;48.414;9.118;2023-01-10T11:54:28;7.00;;;2.00;;
1154;SDS011;566;48.414;9.118;2023-01-10T11:59:57;7.35;;;1.80;;
1154;SDS011;566;48.414;9.118;2023-01-10T12:02:26;6.70;;;2.00;;
1154;SDS011;566;48.414;9.118;2023-01-10T12:04:58;8.77;;;2.20;;
1154;SDS011;566;48.414;9.118;2023-01-10T12:07:27;6.10;;;2.40;;
1154;SDS011;566;48.414;9.118;2023-01-10T12:14:50;8.32;;;1.73;;
1154;SDS011;566;48.414;9.118;2023-01-10T12:17:29;6.20;;;1.65;;
1154;SDS011;566;48.414;9.118;2023-01-10T12:20:00;9.63;;;2.08;;
1154;SDS011;566;48.414;9.118;2023-01-10T12:27:42;11.38;;;4.18;;
1154;SDS011;566;48.414;9.118;2023-01-10T12:30:15;11.32;;;2.05;;
1154;SDS011;566;48.414;9.118;2023-01-10T12:32:47;8.25;;;2.67;;
1154;SDS011;566;48.414;9.118;2023-01-10T12:35:17;5.53;;;1.65;;
1154;SDS011;566;48.414;9.118;2023-01-10T12:38:02;16.73;;;7.55;;
1154;SDS011;566;48.414;9.118;2023-01-10T12:43:14;8.68;;;4.47;;
1154;SDS011;566;48.414;9.118;2023-01-10T12:46:23;11.20;;;2.30;;
1154;SDS011;566;48.414;9.118;2023-01-10T12:48:57;8.63;;;1.77;;
1154;SDS011;566;48.414;9.118;2023-01-10T12:51:27;11.07;;;3.90;;
1154;SDS011;566;48.414;9.118;2023-01-10T12:53:58;7.38;;;2.10;;
1154;SDS011;566;48.414;9.118;2023-01-10T12:56:28;10.13;;;2.53;;
1154;SDS011;566;48.414;9.118;2023-01-10T12:58:59;4.68;;;1.70;;
1154;SDS011;566;48.414;9.118;2023-01-10T13:01:31;13.63;;;7.60;;
1154;SDS011;566;48.414;9.118;2023-01-10T13:04:05;7.15;;;2.60;;
1154;SDS011;566;48.414;9.118;2023-01-10T13:06:35;11.52;;;2.35;;
1154;SDS011;566;48.414;9.118;2023-01-10T13:09:19;12.27;;;1.80;;
1154;SDS011;566;48.414;9.118;2023-01-10T13:12:07;11.70;;;5.05;;
1154;SDS011;566;48.414;9.118;2023-01-10T13:14:53;11.95;;;5.30;;
1154;SDS011;566;48.414;9.118;2023-01-10T13:17:27;8.23;;;2.65;;
1154;SDS011;566;48.414;9.118;2023-01-10T13:20:17;8.52;;;3.17;;
1154;SDS011;566;48.414;9.118;2023-01-10T13:22:48;10.15;;;2.42;;
1154;SDS011;566;48.414;9.118;2023-01-10T13:25:23;20.55;;;7.85;;
1154;SDS011;566;48.414;9.118;2023-01-10T13:28:04;11.27;;;3.97;;
1154;SDS011;566;48.414;9.118;2023-01-10T13:30:31;8.98;;;1.98;;
1154;SDS011;566;48.414;9.118;2023-01-10T13:33:05;10.43;;;3.65;;
1154;SDS011;566;48.414;9.118;2023-01-10T13:35:41;9.85;;;3.75;;
1154;SDS011;566;48.414;9.118;2023-01-10T13:38:22;7.22;;;2.47;;
1154;SDS011;566;48.414;9.118;2023-01-10T13:48:41;8.52;;;1.92;;
1154;SDS011;566;48.414;9.118;2023-01-10T13:51:28;9.07;;;2.70;;
1154;SDS011;566;48.414;9.118;2023-01-10T13:53:58;8.38;;;3.28;;
1154;SDS011;566;48.414;9.118;2023-01-10T13:58:54;10.35;;;2.83;;
1154;SDS011;566;48.414;9.118;2023-01-10T14:01:39;7.80;;;2.85;;
1154;SDS011;566;48.414;9.118;2023-01-10T14:04:27;8.48;;;3.20;;
1154;SDS011;566;48.414;9.118;2023-01-10T14:06:57;8.77;;;2.35;;
1154;SDS011;566;48.414;9.118;2023-01-10T14:11:58;9.07;;;2.47;;
1154;SDS011;566;48.414;9.118;2023-01-10T14:14:35;10.93;;;2.40;;
1154;SDS011;566;48.414;9.118;2023-01-10T14:17:13;9.57;;;2.47;;
1154;SDS011;566;48.414;9.118;2023-01-10T14:19:43;10.18;;;2.55;;
1154;SDS011;566;48.414;9.118;2023-01-10T14:22:21;8.18;;;2.30;;
1154;SDS011;566;48.414;9.118;2023-01-10T14:24:54;8.98;;;1.95;;
1154;SDS011;566;48.414;9.118;2023-01-10T14:27:20;9.30;;;2.38;;
1154;SDS011;566;48.414;9.118;2023-01-10T14:29:52;9.00;;;1.77;;
1154;SDS011;566;48.414;9.118;2023-01-10T14:32:39;5.63;;;1.90;;
1154;SDS011;566;48.414;9.118;2023-01-10T14:35:08;11.45;;;2.20;;
1154;SDS011;566;48.414;9.118;2023-01-10T14:37:40;8.00;;;2.38;;
1154;SDS011;566;48.414;9.118;2023-01-10T14:43:10;10.15;;;2.10;;
1154;SDS011;566;48.414;9.118;2023-01-10T14:45:43;9.55;;;2.17;;
1154;SDS011;566;48.414;9.118;2023-01-10T14:48:21;8.15;;;2.03;;
1154;SDS011;566;48.414;9.118;2023-01-10T14:53:42;7.88;;;3.10;;
1154;SDS011;566;48.414;9.118;2023-01-10T14:56:18;9.55;;;2.33;;
1154;SDS011;566;48.414;9.118;2023-01-10T14:58:45;6.05;;;2.00;;
1154;SDS011;566;48.414;9.118;2023-01-10T15:01:14;8.73;;;1.75;;
1154;SDS011;566;48.414;9.118;2023-01-10T15:03:50;7.03;;;1.60;;
1154;SDS011;566;48.414;9.118;2023-01-10T15:06:16;7.13;;;1.88;;
1154;SDS011;566;48.414;9.118;2023-01-10T15:08:42;7.03;;;2.05;;
1154;SDS011;566;48.414;9.118;2023-01-10T15:11:08;7.80;;;1.95;;
1154;SDS011;566;48.414;9.118;2023-01-10T15:13:48;6.72;;;1.80;;
1154;SDS011;566;48.414;9.118;2023-01-10T15:16:20;7.30;;;1.67;;
1154;SDS011;566;48.414;9.118;2023-01-10T15:19:02;9.50;;;2.30;;
1154;SDS011;566;48.414;9.118;2023-01-10T15:21:34;6.65;;;2.40;;
1154;SDS011;566;48.414;9.118;2023-01-10T15:27:04;5.70;;;2.10;;
1154;SDS011;566;48.414;9.118;2023-01-10T15:29:32;5.15;;;1.40;;
1154;SDS011;566;48.414;9.118;2023-01-10T15:32:05;7.95;;;2.05;;
1154;SDS011;566;48.414;9.118;2023-01-10T15:34:36;7.10;;;2.03;;
1154;SDS011;566;48.414;9.118;2023-01-10T15:37:03;8.48;;;2.08;;
1154;SDS011;566;48.414;9.118;2023-01-10T15:39:35;8.60;;;1.80;;
1154;SDS011;566;48.414;9.118;2023-01-10T15:42:08;10.25;;;1.80;;
1154;SDS011;566;48.414;9.118;2023-01-10T15:44:39;11.50;;;4.00;;
1154;SDS011;566;48.414;9.118;2023-01-10T15:47:05;8.27;;;1.80;;
1154;SDS011;566;48.414;9.118;2023-01-10T15:49:51;8.80;;;1.83;;
1154;SDS011;566;48.414;9.118;2023-01-10T15:52:22;10.02;;;2.70;;
1154;SDS011;566;48.414;9.118;2023-01-10T15:54:48;9.35;;;1.85;;
1154;SDS011;566;48.414;9.118;2023-01-10T15:57:18;16.33;;;7.65;;
1154;SDS011;566;48.414;9.118;2023-01-10T15:59:53;6.20;;;3.00;;
1154;SDS011;566;48.414;9.118;2023-01-10T16:04:53;13.45;;;6.03;;
1154;SDS011;566;48.414;9.118;2023-01-10T16:07:21;8.68;;;3.78;;
1154;SDS011;566;48.414;9.118;2023-01-10T16:10:02;11.40;;;4.93;;
1154;SDS011;566;48.414;9.118;2023-01-10T16:12:38;9.60;;;3.40;;
1154;SDS011;566;48.414;9.118;2023-01-10T16:15:27;8.82;;;2.70;;
1154;SDS011;566;48.414;9.118;2023-01-10T16:17:54;13.55;;;4.88;;
1154;SDS011;566;48.414;9.118;2023-01-10T16:20:20;10.60;;;3.53;;
1154;SDS011;566;48.414;9.118;2023-01-10T16:22:49;10.43;;;3.17;;
1154;SDS011;566;48.414;9.118;2023-01-10T16:25:16;15.70;;;7.80;;
1154;SDS011;566;48.414;9.118;2023-01-10T16:27:44;14.40;;;6.88;;
1154;SDS011;566;48.414;9.118;2023-01-10T16:30:19;16.00;;;7.90;;
1154;SDS011;566;48.414;9.118;2023-01-10T16:32:50;17.35;;;5.38;;
1154;SDS011;566;48.414;9.118;2023-01-10T16:35:15;12.77;;;5.00;;
1154;SDS011;566;48.414;9.118;2023-01-10T16:37:43;18.65;;;6.22;;
1154;SDS011;566;48.414;9.118;2023-01-10T16:40:20;22.65;;;9.70;;
1154;SDS011;566;48.414;9.118;2023-01-10T16:42:48;27.27;;;9.35;;
1154;SDS011;566;48.414;9.118;2023-01-10T16:47:59;11.95;;;3.80;;
1154;SDS011;566;48.414;9.118;2023-01-10T16:50:25;11.68;;;4.60;;
1154;SDS011;566;48.414;9.118;2023-01-10T16:52:51;9.27;;;3.53;;
1154;SDS011;566;48.414;9.118;2023-01-10T16:55:17;9.20;;;3.42;;
1154;SDS011;566;48.414;9.118;2023-01-10T16:57:45;8.90;;;4.68;;
1154;SDS011;566;48.414;9.118;2023-01-10T17:00:13;8.65;;;2.58;;
1154;SDS011;566;48.414;9.118;2023-01-10T17:02:42;9.82;;;3.20;;
1154;SDS011;566;48.414;9.118;2023-01-10T17:05:10;9.63;;;3.42;;
1154;SDS011;566;48.414;9.118;2023-01-10T17:07:36;14.48;;;3.92;;
1154;SDS011;566;48.414;9.118;2023-01-10T17:10:01;10.65;;;2.63;;
1154;SDS011;566;48.414;9.118;2023-01-10T17:12:30;10.50;;;3.95;;
1154;SDS011;566;48.414;9.118;2023-01-10T17:14:59;14.35;;;4.13;;
1154;SDS011;566;48.414;9.118;2023-01-10T17:17:25;9.82;;;2.42;;
1154;SDS011;566;48.414;9.118;2023-01-10T17:19:50;9.88;;;2.70;;